Time;durP1;ratioP1;P1;durP2;ratioP2;P2;SDS_P1;SDS_P2;PMS_P1;PMS_P2;Temp;Humidity;BMP_temperature;BMP_pressure;BME280_temperature;BME280_humidity;BME280_pressure;Samples;Min_cycle;Max_cycle;Signal;HPM_P1;HPM_P2
2023/11/16 00:00:05;;;;;;;3.67;1.40;;;12.40;99.90;;;;;;5079428;28;20201;-62
2023/11/16 00:02:34;;;;;;;2.80;1.20;;;12.40;99.90;;;;;;5080819;28;20251;-62
2023/11/16 00:05:02;;;;;;;5.50;1.80;;;12.40;99.90;;;;;;5084327;28;20256;-62
2023/11/16 00:07:29;;;;;;;5.03;1.43;;;12.40;99.90;;;;;;5085546;28;20478;-62
2023/11/16 00:09:57;;;;;;;3.63;1.87;;;12.40;99.90;;;;;;5083404;28;20208;-62
2023/11/16 00:12:24;;;;;;;3.37;1.40;;;12.40;99.90;;;;;;5084044;28;20230;-62
2023/11/16 00:14:50;;;;;;;2.73;1.67;;;12.40;99.90;;;;;;5086730;28;20226;-62
2023/11/16 00:17:18;;;;;;;3.07;1.60;;;12.20;99.90;;;;;;5086641;28;20612;-60
2023/11/16 00:19:45;;;;;;;3.93;1.57;;;12.10;99.90;;;;;;5083282;28;20209;-61
2023/11/16 00:22:12;;;;;;;3.67;1.33;;;11.80;99.90;;;;;;5083336;28;20232;-62
2023/11/16 00:24:38;;;;;;;4.57;1.80;;;11.60;99.90;;;;;;5085747;28;20215;-62
2023/11/16 00:27:06;;;;;;;4.33;1.30;;;11.40;99.90;;;;;;5086815;28;20208;-62
2023/11/16 00:29:33;;;;;;;3.73;1.40;;;11.40;99.90;;;;;;5084670;28;20631;-62
2023/11/16 00:32:00;;;;;;;2.63;1.30;;;11.50;99.90;;;;;;5083286;28;20303;-62
2023/11/16 00:34:26;;;;;;;5.67;1.70;;;11.70;99.90;;;;;;5083593;28;20221;-62
2023/11/16 00:36:53;;;;;;;3.47;1.30;;;11.90;99.90;;;;;;5086434;28;20249;-62
2023/11/16 00:39:20;;;;;;;3.40;1.37;;;12.00;99.90;;;;;;5086392;28;20205;-62
2023/11/16 00:41:47;;;;;;;3.50;1.43;;;12.10;99.90;;;;;;5082804;28;20270;-62
2023/11/16 00:44:19;;;;;;;5.40;1.60;;;12.20;99.90;;;;;;5082756;28;20197;-61
2023/11/16 00:46:48;;;;;;;3.60;1.60;;;12.20;99.90;;;;;;5082672;28;20288;-61
2023/11/16 00:49:15;;;;;;;2.53;1.20;;;12.30;99.90;;;;;;5082651;28;20201;-62
2023/11/16 00:51:42;;;;;;;4.90;1.57;;;12.30;99.90;;;;;;5085713;28;20216;-62
2023/11/16 00:54:11;;;;;;;3.30;1.57;;;12.30;99.90;;;;;;5086159;28;20203;-62
2023/11/16 00:56:38;;;;;;;2.73;1.30;;;12.30;99.90;;;;;;5083568;28;20576;-60
2023/11/16 00:59:05;;;;;;;2.20;1.30;;;12.30;99.90;;;;;;5082586;28;20224;-62
2023/11/16 01:01:33;;;;;;;4.00;1.60;;;12.30;99.90;;;;;;5084004;28;20667;-61
2023/11/16 01:04:01;;;;;;;4.77;1.60;;;12.20;99.90;;;;;;5085873;28;20200;-61
2023/11/16 01:06:27;;;;;;;4.10;1.73;;;12.20;99.90;;;;;;5085430;28;20310;-62
2023/11/16 01:08:56;;;;;;;6.63;1.50;;;12.20;99.90;;;;;;5082743;28;20197;-61
2023/11/16 01:11:27;;;;;;;4.63;1.60;;;12.20;99.90;;;;;;5082422;28;20225;-62
2023/11/16 01:13:54;;;;;;;4.23;1.50;;;12.30;99.90;;;;;;5085986;28;20273;-62
2023/11/16 01:16:25;;;;;;;3.40;1.60;;;12.30;99.90;;;;;;5084851;28;20221;-62
2023/11/16 01:18:54;;;;;;;5.10;1.57;;;12.20;99.90;;;;;;5082625;28;20204;-62
2023/11/16 01:21:21;;;;;;;5.07;1.97;;;12.20;99.90;;;;;;5082311;28;20217;-61
2023/11/16 01:23:51;;;;;;;2.87;1.30;;;12.20;99.90;;;;;;5085797;28;20698;-62
2023/11/16 01:26:18;;;;;;;3.50;1.57;;;12.20;99.90;;;;;;5085822;28;20196;-62
2023/11/16 01:28:47;;;;;;;2.50;1.20;;;12.30;99.90;;;;;;5081948;28;20204;-62
2023/11/16 01:31:13;;;;;;;3.93;1.33;;;12.30;99.90;;;;;;5082189;28;20225;-62
2023/11/16 01:33:41;;;;;;;3.27;1.27;;;12.30;99.90;;;;;;5084668;28;20230;-62
2023/11/16 01:36:11;;;;;;;3.17;1.33;;;12.20;99.90;;;;;;5085404;28;20226;-62
2023/11/16 01:38:36;;;;;;;3.77;1.30;;;12.20;99.90;;;;;;5083293;28;20205;-59
2023/11/16 01:41:05;;;;;;;3.53;1.30;;;12.20;99.90;;;;;;5081938;28;20232;-62
2023/11/16 01:43:33;;;;;;;7.30;1.20;;;12.20;99.90;;;;;;5082706;28;20201;-62
2023/11/16 01:46:00;;;;;;;2.27;1.00;;;12.20;99.90;;;;;;5085632;28;20192;-62
2023/11/16 01:48:29;;;;;;;4.20;1.50;;;12.30;99.90;;;;;;5084548;28;20205;-62
2023/11/16 01:50:55;;;;;;;6.00;1.43;;;12.20;99.90;;;;;;5081600;28;20205;-62
2023/11/16 01:53:24;;;;;;;2.93;1.20;;;12.30;99.90;;;;;;5081514;28;20196;-61
2023/11/16 01:55:52;;;;;;;2.33;0.97;;;12.20;99.90;;;;;;5084770;28;20216;-62
2023/11/16 01:58:19;;;;;;;3.03;1.30;;;12.30;99.90;;;;;;5085098;28;20200;-61
2023/11/16 02:00:48;;;;;;;5.27;1.83;;;12.20;99.90;;;;;;5081495;28;20205;-62
2023/11/16 02:03:14;;;;;;;5.83;1.50;;;12.30;99.90;;;;;;5081414;28;20246;-62
2023/11/16 02:05:41;;;;;;;3.27;1.20;;;12.10;99.90;;;;;;5083732;28;20220;-61
2023/11/16 02:08:09;;;;;;;4.10;1.60;;;12.00;99.90;;;;;;5084875;28;20250;-62
2023/11/16 02:10:38;;;;;;;4.17;1.43;;;12.50;99.90;;;;;;5082430;28;20298;-62
2023/11/16 02:13:16;;;;;;;3.43;1.33;;;11.60;99.90;;;;;;5081230;28;20262;-61
2023/11/16 02:15:44;;;;;;;4.27;1.33;;;11.50;99.90;;;;;;5083806;28;20255;-62
2023/11/16 02:18:13;;;;;;;3.67;1.50;;;11.30;99.90;;;;;;5084619;28;20522;-62
2023/11/16 02:20:41;;;;;;;3.43;1.43;;;11.00;99.90;;;;;;5081795;28;20204;-62
2023/11/16 02:23:09;;;;;;;5.17;1.97;;;10.70;99.90;;;;;;5080953;28;20207;-62
2023/11/16 02:25:43;;;;;;;4.47;1.70;;;10.60;99.90;;;;;;5082498;28;20205;-62
2023/11/16 02:28:10;;;;;;;3.90;1.40;;;10.40;99.90;;;;;;5083230;28;20200;-62
2023/11/16 02:30:37;;;;;;;4.23;1.60;;;10.60;99.90;;;;;;5082048;28;20215;-62
2023/11/16 02:33:04;;;;;;;3.13;1.47;;;10.50;99.90;;;;;;5080808;28;20555;-62
2023/11/16 02:35:31;;;;;;;4.07;1.40;;;10.40;99.90;;;;;;5081587;28;20220;-62
2023/11/16 02:37:58;;;;;;;2.53;1.53;;;10.50;99.90;;;;;;5084136;28;20665;-61
2023/11/16 02:40:26;;;;;;;5.73;1.70;;;10.70;99.90;;;;;;5083919;28;20228;-61
2023/11/16 02:42:53;;;;;;;3.70;1.53;;;10.80;99.90;;;;;;5080466;28;20220;-61
2023/11/16 02:45:22;;;;;;;3.23;1.60;;;10.90;99.90;;;;;;5080280;28;20201;-62
2023/11/16 02:47:50;;;;;;;3.53;1.40;;;11.00;99.90;;;;;;5080290;28;20246;-61
2023/11/16 02:50:17;;;;;;;2.67;1.40;;;11.10;99.90;;;;;;5080159;28;20704;-61
2023/11/16 02:52:44;;;;;;;3.90;1.50;;;11.20;99.90;;;;;;5082828;28;20713;-62
2023/11/16 02:55:11;;;;;;;2.17;1.30;;;11.30;99.90;;;;;;5083588;28;20220;-61
2023/11/16 02:57:39;;;;;;;1.33;1.20;;;11.40;99.90;;;;;;5082190;28;20201;-61
2023/11/16 03:00:07;;;;;;;2.67;1.53;;;11.50;99.90;;;;;;5080080;28;20229;-61
2023/11/16 03:02:34;;;;;;;3.70;1.47;;;11.50;99.90;;;;;;5081116;28;20710;-61
2023/11/16 03:05:02;;;;;;;5.23;1.70;;;11.50;99.90;;;;;;5083389;28;20200;-62
2023/11/16 03:07:28;;;;;;;7.00;2.23;;;11.60;99.90;;;;;;5083020;28;20211;-61
2023/11/16 03:09:55;;;;;;;4.73;1.73;;;11.60;99.90;;;;;;5080046;28;20211;-62
2023/11/16 03:12:22;;;;;;;2.83;1.43;;;11.70;99.90;;;;;;5079894;28;20228;-62
2023/11/16 03:14:50;;;;;;;5.10;2.13;;;11.70;99.90;;;;;;5082981;28;20236;-61
2023/11/16 03:17:20;;;;;;;3.63;1.80;;;11.70;99.90;;;;;;5083291;28;20330;-62
2023/11/16 03:19:46;;;;;;;3.47;1.40;;;11.70;99.90;;;;;;5080088;28;20214;-62
2023/11/16 03:22:13;;;;;;;4.07;1.60;;;11.60;99.90;;;;;;5079784;28;20248;-62
2023/11/16 03:24:40;;;;;;;5.00;1.77;;;11.60;99.90;;;;;;5081772;28;20204;-62
2023/11/16 03:27:09;;;;;;;2.60;1.57;;;11.70;99.90;;;;;;5083384;28;20220;-61
2023/11/16 03:29:37;;;;;;;3.30;1.67;;;11.70;99.90;;;;;;5081497;28;20660;-63
2023/11/16 03:32:08;;;;;;;2.57;1.43;;;11.80;99.90;;;;;;5079865;28;20228;-62
2023/11/16 03:34:34;;;;;;;1.57;1.20;;;11.80;99.90;;;;;;5080923;28;20231;-62
2023/11/16 03:37:03;;;;;;;4.53;1.50;;;11.70;99.90;;;;;;5083012;28;20663;-62
2023/11/16 03:39:30;;;;;;;3.97;1.63;;;11.70;99.90;;;;;;5081910;28;20645;-62
2023/11/16 03:41:57;;;;;;;3.73;1.10;;;11.70;99.90;;;;;;5079537;28;20605;-62
2023/11/16 03:44:24;;;;;;;3.53;1.80;;;11.70;99.90;;;;;;5079487;28;20678;-62
2023/11/16 03:46:51;;;;;;;3.67;1.40;;;11.60;99.90;;;;;;5079724;28;20284;-61
2023/11/16 03:49:19;;;;;;;3.77;1.40;;;11.60;99.90;;;;;;5079468;28;20266;-62
2023/11/16 03:51:47;;;;;;;3.80;1.47;;;11.50;99.90;;;;;;5082162;28;20220;-61
2023/11/16 03:54:13;;;;;;;3.83;1.50;;;11.50;99.90;;;;;;5082826;28;20680;-62
2023/11/16 03:56:39;;;;;;;3.20;1.33;;;11.50;99.90;;;;;;5080778;28;20220;-62
2023/11/16 03:59:06;;;;;;;4.43;1.33;;;11.50;99.90;;;;;;5079597;28;20227;-62
2023/11/16 04:01:36;;;;;;;3.90;1.30;;;11.60;99.90;;;;;;5080562;28;20244;-62
2023/11/16 04:04:03;;;;;;;3.90;1.73;;;11.50;99.90;;;;;;5082892;28;20246;-61
2023/11/16 04:06:31;;;;;;;1.87;1.13;;;11.50;99.90;;;;;;5082181;28;20204;-61
2023/11/16 04:08:58;;;;;;;4.50;1.30;;;11.50;99.90;;;;;;5079232;28;20208;-61
2023/11/16 04:11:24;;;;;;;11.70;7.13;;;11.50;99.90;;;;;;5079212;28;20270;-61
2023/11/16 04:13:51;;;;;;;23.90;20.07;;;11.50;99.90;;;;;;5079071;28;20662;-61
2023/11/16 04:16:23;;;;;;;3.00;2.30;;;11.50;99.90;;;;;;5079586;28;20224;-61
2023/11/16 04:18:51;;;;;;;8.17;1.57;;;11.50;99.90;;;;;;5082385;28;20228;-61
2023/11/16 04:21:19;;;;;;;3.90;2.10;;;11.60;99.90;;;;;;5082516;28;20590;-61
2023/11/16 04:23:52;;;;;;;6.43;3.20;;;11.50;99.90;;;;;;5079717;28;20240;-60
2023/11/16 04:26:20;;;;;;;5.17;2.50;;;11.60;99.90;;;;;;5079343;28;20197;-60
2023/11/16 04:28:47;;;;;;;3.93;1.70;;;11.60;99.90;;;;;;5081579;28;20212;-61
2023/11/16 04:31:14;;;;;;;3.87;1.40;;;11.60;99.90;;;;;;5082307;28;20733;-61
2023/11/16 04:33:40;;;;;;;2.83;1.20;;;11.70;99.90;;;;;;5080661;28;20209;-61
2023/11/16 04:36:08;;;;;;;4.13;1.40;;;11.60;99.90;;;;;;5079003;28;20224;-61
2023/11/16 04:38:35;;;;;;;2.57;1.00;;;11.60;99.90;;;;;;5080047;28;20666;-61
2023/11/16 04:41:09;;;;;;;3.50;1.10;;;11.60;99.90;;;;;;5082498;28;20255;-61
2023/11/16 04:43:36;;;;;;;3.67;1.13;;;11.60;99.90;;;;;;5080935;28;20574;-61
2023/11/16 04:46:04;;;;;;;2.67;1.37;;;11.60;99.90;;;;;;5079056;28;20197;-61
2023/11/16 04:48:32;;;;;;;5.23;0.93;;;11.60;99.90;;;;;;5079530;28;20231;-61
2023/11/16 04:50:59;;;;;;;3.40;1.10;;;11.60;99.90;;;;;;5082225;28;20224;-61
2023/11/16 04:53:26;;;;;;;2.40;1.00;;;11.60;99.90;;;;;;5086021;28;20207;-61
2023/11/16 04:55:53;;;;;;;4.77;1.23;;;11.60;99.90;;;;;;5082576;28;20212;-60
2023/11/16 04:58:20;;;;;;;3.60;1.20;;;11.70;99.90;;;;;;5082622;28;20210;-61
2023/11/16 05:00:47;;;;;;;4.53;1.37;;;11.70;99.90;;;;;;5084841;28;20690;-61
2023/11/16 05:03:14;;;;;;;2.87;1.30;;;11.70;99.90;;;;;;5085836;28;20208;-62
2023/11/16 05:05:41;;;;;;;3.77;2.43;;;11.70;99.90;;;;;;5083968;28;20645;-61
2023/11/16 05:08:07;;;;;;;2.27;1.40;;;11.70;99.90;;;;;;5082462;28;20588;-61
2023/11/16 05:10:34;;;;;;;1.83;1.23;;;11.60;99.90;;;;;;5083287;28;20632;-61
2023/11/16 05:13:01;;;;;;;5.23;2.60;;;11.60;99.90;;;;;;5085754;28;20244;-60
2023/11/16 05:15:29;;;;;;;2.10;1.10;;;11.60;99.90;;;;;;5085317;28;20249;-60
2023/11/16 05:17:56;;;;;;;2.13;1.27;;;11.60;99.90;;;;;;5081981;28;20197;-61
2023/11/16 05:20:23;;;;;;;3.77;1.23;;;11.60;99.90;;;;;;5081968;28;20254;-61
2023/11/16 05:22:50;;;;;;;4.83;1.47;;;11.50;99.90;;;;;;5085112;28;20256;-61
2023/11/16 05:25:17;;;;;;;4.20;1.40;;;11.40;99.90;;;;;;5085531;28;20238;-61
2023/11/16 05:27:43;;;;;;;4.57;1.13;;;11.30;99.90;;;;;;5083169;28;20209;-60
2023/11/16 05:30:11;;;;;;;4.60;1.40;;;11.30;99.90;;;;;;5081935;28;20705;-61
2023/11/16 05:32:39;;;;;;;5.43;1.77;;;11.40;99.90;;;;;;5082944;28;20256;-61
2023/11/16 05:35:08;;;;;;;2.57;1.43;;;11.30;99.90;;;;;;5085685;28;20234;-61
2023/11/16 05:37:35;;;;;;;2.90;1.73;;;11.30;99.90;;;;;;5084672;28;20842;-61
2023/11/16 05:40:05;;;;;;;4.97;2.00;;;11.30;99.90;;;;;;5082162;28;20208;-61
2023/11/16 05:42:32;;;;;;;4.00;2.20;;;11.30;99.90;;;;;;5082143;28;20248;-62
2023/11/16 05:44:58;;;;;;;4.40;1.90;;;11.30;99.90;;;;;;5085064;28;20223;-61
2023/11/16 05:47:25;;;;;;;3.43;1.67;;;11.30;99.90;;;;;;5085030;28;20661;-61
2023/11/16 05:49:53;;;;;;;5.27;1.70;;;11.30;99.90;;;;;;5081678;28;20204;-61
2023/11/16 05:52:20;;;;;;;5.13;1.93;;;11.40;99.90;;;;;;5081610;28;20251;-61
2023/11/16 05:54:47;;;;;;;8.87;2.83;;;11.30;99.90;;;;;;5083643;28;20209;-61
2023/11/16 05:57:14;;;;;;;6.07;1.93;;;11.30;99.90;;;;;;5084762;28;20212;-60
2023/11/16 05:59:42;;;;;;;5.20;1.73;;;11.20;99.90;;;;;;5082878;28;20285;-61
2023/11/16 06:02:09;;;;;;;3.30;1.40;;;11.20;99.90;;;;;;5080924;28;20224;-61
2023/11/16 06:04:36;;;;;;;3.83;1.90;;;11.20;99.90;;;;;;5081699;28;20243;-60
2023/11/16 06:07:04;;;;;;;10.03;6.03;;;11.20;99.90;;;;;;5084723;28;20196;-61
2023/11/16 06:09:31;;;;;;;4.70;3.10;;;11.20;99.90;;;;;;5084128;28;20208;-63
2023/11/16 06:12:01;;;;;;;5.27;1.60;;;11.30;99.90;;;;;;5081046;28;20221;-61
2023/11/16 06:14:30;;;;;;;4.10;1.50;;;11.30;99.90;;;;;;5080705;28;20573;-61
2023/11/16 06:16:57;;;;;;;4.37;1.60;;;11.30;99.90;;;;;;5080570;28;20239;-61
2023/11/16 06:19:24;;;;;;;5.27;1.93;;;11.20;99.90;;;;;;5081085;28;20200;-61
2023/11/16 06:21:51;;;;;;;3.57;1.77;;;11.20;99.90;;;;;;5083242;28;20232;-61
2023/11/16 06:24:19;;;;;;;4.23;1.73;;;11.10;99.90;;;;;;5083953;28;20224;-61
2023/11/16 06:26:46;;;;;;;3.07;1.70;;;11.10;99.90;;;;;;5082002;28;20333;-62
2023/11/16 06:29:14;;;;;;;4.53;1.80;;;11.10;99.90;;;;;;5080822;28;20208;-60
2023/11/16 06:31:41;;;;;;;4.00;1.73;;;11.10;99.90;;;;;;5080829;28;20232;-61
2023/11/16 06:34:08;;;;;;;7.93;4.23;;;11.10;99.90;;;;;;5080516;28;20674;-61
2023/11/16 06:36:35;;;;;;;9.30;4.20;;;11.10;99.90;;;;;;5081043;28;20232;-61
2023/11/16 06:39:02;;;;;;;8.83;3.90;;;11.10;99.90;;;;;;5084041;28;20231;-61
2023/11/16 06:41:30;;;;;;;5.57;3.43;;;11.10;99.90;;;;;;5083738;28;20220;-59
2023/11/16 06:43:59;;;;;;;8.90;2.80;;;11.10;99.90;;;;;;5080442;28;20228;-61
2023/11/16 06:46:28;;;;;;;4.23;2.27;;;11.10;99.90;;;;;;5080587;28;20193;-61
2023/11/16 06:48:56;;;;;;;6.13;2.07;;;11.00;99.90;;;;;;5083615;28;20196;-61
2023/11/16 06:51:23;;;;;;;4.10;1.80;;;11.10;99.90;;;;;;5083789;28;20762;-61
2023/11/16 06:53:50;;;;;;;2.23;1.50;;;11.10;99.90;;;;;;5080771;28;20692;-61
2023/11/16 06:56:17;;;;;;;4.47;1.90;;;11.20;99.90;;;;;;5079914;28;20693;-60
2023/11/16 06:58:45;;;;;;;1.70;1.40;;;11.20;99.90;;;;;;5081751;28;20693;-61
2023/11/16 07:01:12;;;;;;;4.63;1.73;;;11.20;99.90;;;;;;5083293;28;20228;-61
2023/11/16 07:03:39;;;;;;;5.80;2.30;;;11.20;99.90;;;;;;5082390;28;20257;-61
2023/11/16 07:06:07;;;;;;;7.63;1.90;;;11.20;99.90;;;;;;5080051;28;20215;-60
2023/11/16 07:08:34;;;;;;;6.03;1.90;;;11.20;99.90;;;;;;5080246;28;20216;-61
2023/11/16 07:11:01;;;;;;;2.97;1.80;;;11.20;99.90;;;;;;5083496;28;20224;-61
2023/11/16 07:13:28;;;;;;;4.03;1.63;;;11.00;99.90;;;;;;5083312;28;20200;-61
2023/11/16 07:15:58;;;;;;;7.47;2.07;;;11.00;99.90;;;;;;5079051;28;20205;-61
2023/11/16 07:18:24;;;;;;;3.57;1.90;;;11.00;99.90;;;;;;5079812;28;20201;-61
2023/11/16 07:20:51;;;;;;;4.43;1.70;;;11.00;99.90;;;;;;5082005;28;20694;-61
2023/11/16 07:23:19;;;;;;;5.67;1.77;;;11.00;99.90;;;;;;5082986;28;20591;-61
2023/11/16 07:25:47;;;;;;;6.47;1.80;;;11.10;99.90;;;;;;5081459;28;20204;-61
2023/11/16 07:28:15;;;;;;;3.97;2.17;;;11.20;99.90;;;;;;5080089;28;20212;-61
2023/11/16 07:30:43;;;;;;;30.70;15.50;;;11.30;99.90;;;;;;5080792;28;20208;-60
2023/11/16 07:33:14;;;;;;;4.73;2.67;;;11.40;99.90;;;;;;5083249;28;20224;-61
2023/11/16 07:35:41;;;;;;;4.30;1.90;;;11.40;99.90;;;;;;5081649;28;20203;-61
2023/11/16 07:38:09;;;;;;;4.60;2.00;;;11.40;99.90;;;;;;5079439;28;20638;-61
2023/11/16 07:40:35;;;;;;;5.47;2.00;;;11.50;99.90;;;;;;5079920;28;20671;-60
2023/11/16 07:43:02;;;;;;;7.00;2.50;;;11.40;99.90;;;;;;5083035;28;20207;-60
2023/11/16 07:45:29;;;;;;;4.50;2.00;;;11.50;99.90;;;;;;5082875;28;20197;-60
2023/11/16 07:47:59;;;;;;;4.57;2.07;;;11.50;99.90;;;;;;5079746;28;20197;-65
2023/11/16 07:50:29;;;;;;;4.23;2.00;;;11.50;99.90;;;;;;5079558;28;20622;-61
2023/11/16 07:52:57;;;;;;;6.43;2.33;;;11.60;99.90;;;;;;5082338;28;20219;-61
2023/11/16 07:55:25;;;;;;;6.67;2.60;;;11.70;99.90;;;;;;5082561;28;20577;-61
2023/11/16 07:57:54;;;;;;;6.00;2.30;;;11.70;99.90;;;;;;5080011;28;20231;-61
2023/11/16 08:00:30;;;;;;;5.70;2.23;;;11.80;99.90;;;;;;5079408;28;20284;-61
2023/11/16 08:05:48;;;;;;;5.10;2.60;;;11.80;99.90;;;;;;5069733;28;20692;-61
2023/11/16 08:08:18;;;;;;;4.67;2.40;;;11.70;99.90;;;;;;5079172;28;20193;-61
2023/11/16 08:10:46;;;;;;;4.53;2.30;;;11.80;99.90;;;;;;5080666;28;20208;-61
2023/11/16 08:13:12;;;;;;;6.87;3.27;;;11.60;99.90;;;;;;5082524;28;20696;-61
2023/11/16 08:15:40;;;;;;;4.00;2.30;;;11.50;99.90;;;;;;5081802;28;20295;-61
2023/11/16 08:18:08;;;;;;;3.67;2.07;;;11.50;99.90;;;;;;5079654;28;20220;-61
2023/11/16 08:20:34;;;;;;;6.27;2.37;;;11.60;99.90;;;;;;5079163;28;20270;-60
2023/11/16 08:23:05;;;;;;;5.80;2.33;;;11.80;99.90;;;;;;5082500;28;20231;-61
2023/11/16 08:25:33;;;;;;;4.23;2.63;;;11.90;99.90;;;;;;5083155;28;20204;-61
2023/11/16 08:28:00;;;;;;;8.93;2.80;;;11.90;99.90;;;;;;5083198;28;20580;-62
2023/11/16 08:30:27;;;;;;;5.30;2.73;;;11.90;99.90;;;;;;5083222;28;20251;-61
2023/11/16 08:32:54;;;;;;;9.37;2.70;;;12.00;99.90;;;;;;5085886;28;20254;-62
2023/11/16 08:35:23;;;;;;;10.00;2.70;;;12.10;99.90;;;;;;5086485;28;20262;-61
2023/11/16 08:37:52;;;;;;;6.07;2.77;;;12.20;99.90;;;;;;5084030;28;20220;-61
2023/11/16 08:40:20;;;;;;;7.20;2.47;;;12.20;99.90;;;;;;5083067;28;20208;-61
2023/11/16 08:42:49;;;;;;;5.10;2.67;;;12.20;99.90;;;;;;5084371;28;20824;-61
2023/11/16 08:45:21;;;;;;;5.93;2.57;;;12.30;99.90;;;;;;5086225;28;20674;-61
2023/11/16 08:47:51;;;;;;;6.20;2.40;;;12.40;99.90;;;;;;5084154;28;20201;-66
2023/11/16 08:50:19;;;;;;;3.83;2.10;;;12.50;99.90;;;;;;5082580;28;20201;-61
2023/11/16 08:52:47;;;;;;;4.93;2.57;;;12.50;99.90;;;;;;5083626;28;20679;-61
2023/11/16 08:55:15;;;;;;;4.97;2.60;;;12.50;99.90;;;;;;5085891;28;20200;-61
2023/11/16 08:57:46;;;;;;;4.47;2.10;;;12.40;99.90;;;;;;5085143;28;20315;-61
2023/11/16 09:00:33;;;;;;;4.23;2.60;;;12.40;99.90;;;;;;5082484;28;20239;-62
2023/11/16 09:03:02;;;;;;;5.23;2.80;;;12.40;99.90;;;;;;5085421;28;20224;-61
2023/11/16 09:05:31;;;;;;;5.40;2.40;;;12.50;99.90;;;;;;5085630;28;20247;-60
2023/11/16 09:08:00;;;;;;;2.07;1.73;;;12.60;99.90;;;;;;5082446;28;20673;-60
2023/11/16 09:10:27;;;;;;;5.70;2.43;;;12.60;99.90;;;;;;5082165;28;20669;-60
2023/11/16 09:12:56;;;;;;;3.67;1.80;;;12.70;99.90;;;;;;5084479;28;20686;-61
2023/11/16 09:15:23;;;;;;;5.30;1.70;;;12.80;99.90;;;;;;5085436;28;20652;-61
2023/11/16 09:17:51;;;;;;;4.73;1.83;;;12.80;99.90;;;;;;5083495;28;20224;-60
2023/11/16 09:20:19;;;;;;;5.33;2.10;;;12.80;99.90;;;;;;5081947;28;20205;-60
2023/11/16 09:22:48;;;;;;;5.40;2.10;;;12.70;99.90;;;;;;5083103;28;20793;-60
2023/11/16 09:25:19;;;;;;;4.10;2.13;;;12.50;99.90;;;;;;5085046;28;20625;-60
2023/11/16 09:27:50;;;;;;;2.80;1.90;;;12.50;99.90;;;;;;5084042;28;20204;-61
2023/11/16 09:30:18;;;;;;;5.10;2.50;;;12.20;99.90;;;;;;5082173;28;20201;-58
2023/11/16 09:32:46;;;;;;;7.17;2.17;;;12.00;99.90;;;;;;5083360;28;20232;-58
2023/11/16 09:35:15;;;;;;;5.93;2.57;;;11.90;99.90;;;;;;5085320;28;20204;-58
2023/11/16 09:37:44;;;;;;;6.07;3.10;;;11.80;99.90;;;;;;5083631;28;20235;-59
2023/11/16 09:40:14;;;;;;;6.83;3.13;;;11.90;99.90;;;;;;5082020;28;20201;-57
2023/11/16 09:42:43;;;;;;;6.17;3.27;;;12.00;99.90;;;;;;5081932;28;20256;-58
2023/11/16 09:45:09;;;;;;;4.80;2.80;;;12.00;99.90;;;;;;5084806;28;20204;-58
2023/11/16 09:47:42;;;;;;;3.93;2.77;;;12.00;99.90;;;;;;5084732;28;20253;-61
2023/11/16 09:50:10;;;;;;;6.50;2.77;;;12.00;99.90;;;;;;5081464;28;20208;-58
2023/11/16 09:52:39;;;;;;;5.13;2.70;;;12.00;99.90;;;;;;5081062;28;20233;-60
2023/11/16 09:55:10;;;;;;;5.23;2.67;;;12.10;99.90;;;;;;5084387;28;20201;-58
2023/11/16 09:57:41;;;;;;;7.23;2.83;;;12.20;99.90;;;;;;5084545;28;20706;-58
2023/11/16 10:00:16;;;;;;;5.10;2.40;;;12.30;99.90;;;;;;5081249;28;20219;-58
2023/11/16 10:02:53;;;;;;;4.63;2.37;;;12.20;99.90;;;;;;5073475;22;20307;-55
2023/11/16 10:05:22;;;;;;;4.50;2.93;;;12.20;99.90;;;;;;5033743;28;20664;-55
2023/11/16 10:07:51;;;;;;;3.57;2.37;;;12.10;99.90;;;;;;5033391;28;20209;-56
2023/11/16 10:10:19;;;;;;;7.57;2.40;;;12.00;99.90;;;;;;5033180;28;20213;-54
2023/11/16 10:12:47;;;;;;;5.27;2.53;;;12.00;99.90;;;;;;5024647;28;20231;-54
2023/11/16 10:15:17;;;;;;;7.93;2.40;;;11.90;99.90;;;;;;5024872;28;20265;-54
2023/11/16 10:17:45;;;;;;;2.80;1.80;;;12.10;99.90;;;;;;5023844;28;20234;-55
2023/11/16 10:20:13;;;;;;;5.37;2.93;;;12.10;99.90;;;;;;5021287;28;20199;-55
2023/11/16 10:22:41;;;;;;;7.00;2.47;;;12.20;99.90;;;;;;5021860;28;20226;-54
2023/11/16 10:25:10;;;;;;;10.23;2.57;;;12.30;99.90;;;;;;5024759;28;20237;-55
2023/11/16 10:27:37;;;;;;;6.30;1.90;;;12.20;99.90;;;;;;5024783;28;20203;-55
2023/11/16 10:30:06;;;;;;;6.07;2.20;;;12.20;99.90;;;;;;5013523;28;20211;-54
2023/11/16 10:32:34;;;;;;;6.03;2.63;;;12.40;99.90;;;;;;5021375;28;20697;-54
2023/11/16 10:35:02;;;;;;;7.47;1.93;;;12.50;99.90;;;;;;5024460;28;20591;-55
2023/11/16 10:37:31;;;;;;;6.57;1.87;;;12.60;99.90;;;;;;5024457;28;20656;-56
2023/11/16 10:39:58;;;;;;;4.53;2.33;;;12.60;99.90;;;;;;5021644;28;20710;-54
2023/11/16 10:42:26;;;;;;;7.27;2.77;;;12.70;99.90;;;;;;5020733;28;20314;-54
2023/11/16 10:44:54;;;;;;;5.33;3.00;;;12.80;99.90;;;;;;5022646;28;20210;-56
2023/11/16 10:47:21;;;;;;;5.67;2.93;;;12.70;99.90;;;;;;5024198;28;20286;-54
2023/11/16 10:49:49;;;;;;;6.53;2.90;;;12.60;99.90;;;;;;5021783;28;20261;-55
2023/11/16 10:52:17;;;;;;;6.30;2.70;;;12.60;99.90;;;;;;5020532;28;20223;-55
2023/11/16 10:54:46;;;;;;;8.70;3.50;;;12.60;99.90;;;;;;5021137;28;20605;-56
2023/11/16 10:57:17;;;;;;;6.47;3.60;;;12.70;99.90;;;;;;5023746;28;20249;-56
2023/11/16 10:59:47;;;;;;;7.80;3.63;;;12.60;99.90;;;;;;5022807;28;20206;-55
2023/11/16 11:02:15;;;;;;;8.87;3.77;;;12.60;99.90;;;;;;5020111;28;20258;-57
2023/11/16 11:04:43;;;;;;;14.63;7.40;;;12.60;99.90;;;;;;5020267;28;20207;-56
2023/11/16 11:07:12;;;;;;;10.90;4.77;;;12.50;99.90;;;;;;5023727;28;20202;-56
2023/11/16 11:09:44;;;;;;;8.57;4.50;;;12.50;99.90;;;;;;5023445;28;20213;-58
2023/11/16 11:12:15;;;;;;;10.87;4.77;;;12.50;99.90;;;;;;5020079;28;20281;-55
2023/11/16 11:14:46;;;;;;;9.67;4.70;;;12.40;99.90;;;;;;5020420;28;20273;-56
2023/11/16 11:17:28;;;;;;;13.13;4.60;;;12.20;99.90;;;;;;5023475;28;20588;-55
2023/11/16 11:19:56;;;;;;;8.17;4.20;;;12.20;99.90;;;;;;5020990;28;20284;-55
2023/11/16 11:22:27;;;;;;;5.93;4.00;;;12.20;99.90;;;;;;5019908;28;20254;-55
2023/11/16 11:24:55;;;;;;;6.80;4.10;;;12.10;99.90;;;;;;5021571;28;20210;-55
2023/11/16 11:27:25;;;;;;;7.17;4.47;;;11.90;99.90;;;;;;5023536;28;20584;-56
2023/11/16 11:29:52;;;;;;;8.00;4.30;;;11.80;99.90;;;;;;5021658;28;20686;-56
2023/11/16 11:32:25;;;;;;;8.80;3.73;;;11.60;99.90;;;;;;5019988;28;20223;-55
2023/11/16 11:34:52;;;;;;;10.03;3.80;;;11.60;99.90;;;;;;5021308;28;20703;-56
2023/11/16 11:37:19;;;;;;;8.23;3.83;;;11.60;99.90;;;;;;5023071;28;20210;-55
2023/11/16 11:39:49;;;;;;;8.07;3.80;;;11.50;99.90;;;;;;5022789;28;20597;-56
2023/11/16 11:42:17;;;;;;;7.63;3.27;;;11.50;99.90;;;;;;5020704;28;20712;-55
2023/11/16 11:44:52;;;;;;;8.17;3.10;;;11.50;99.90;;;;;;5020195;28;20442;-55
2023/11/16 11:47:19;;;;;;;7.20;3.00;;;11.40;99.90;;;;;;5023010;28;20667;-56
2023/11/16 11:49:46;;;;;;;5.87;3.30;;;11.50;99.90;;;;;;5021908;28;20628;-56
2023/11/16 11:52:13;;;;;;;5.87;3.13;;;11.60;99.90;;;;;;5019811;28;20227;-57
2023/11/16 11:54:41;;;;;;;5.90;2.73;;;11.70;99.90;;;;;;5019349;28;20297;-56
2023/11/16 11:57:07;;;;;;;7.30;3.17;;;11.70;99.90;;;;;;5022866;28;20210;-56
2023/11/16 11:59:36;;;;;;;7.60;3.47;;;11.80;99.90;;;;;;5023002;28;20268;-55
2023/11/16 12:02:08;;;;;;;6.40;3.13;;;11.90;99.90;;;;;;5019206;28;20230;-56
2023/11/16 12:04:35;;;;;;;5.90;3.07;;;11.90;99.90;;;;;;5019164;28;20560;-57
2023/11/16 12:07:07;;;;;;;5.43;2.47;;;12.00;99.90;;;;;;5022626;28;20280;-55
2023/11/16 12:09:34;;;;;;;5.93;2.60;;;12.10;99.90;;;;;;5022932;28;20285;-55
2023/11/16 12:12:03;;;;;;;6.10;2.40;;;12.00;99.90;;;;;;5019808;28;20242;-57
2023/11/16 12:14:37;;;;;;;4.67;2.40;;;12.10;99.90;;;;;;5019079;28;20591;-56
2023/11/16 12:17:04;;;;;;;5.67;2.50;;;12.00;99.90;;;;;;5022796;28;20310;-56
2023/11/16 12:19:32;;;;;;;6.60;2.67;;;12.00;99.90;;;;;;5022620;28;20308;-57
2023/11/16 12:21:59;;;;;;;5.23;2.30;;;12.00;99.90;;;;;;5020020;28;20613;-56
2023/11/16 12:24:27;;;;;;;4.27;2.00;;;12.00;99.90;;;;;;5019044;28;20585;-57
2023/11/16 12:26:54;;;;;;;4.30;2.20;;;12.00;99.90;;;;;;5020945;28;20298;-56
2023/11/16 12:29:26;;;;;;;6.13;2.27;;;12.20;99.90;;;;;;5022550;28;20234;-57
2023/11/16 12:31:55;;;;;;;6.40;2.23;;;12.40;99.90;;;;;;5020928;28;20622;-57
2023/11/16 12:34:24;;;;;;;7.40;2.90;;;12.40;99.90;;;;;;5019381;28;20243;-58
2023/11/16 12:36:54;;;;;;;4.30;1.80;;;12.50;99.90;;;;;;5020417;28;20210;-57
2023/11/16 12:39:25;;;;;;;4.13;1.90;;;12.60;99.90;;;;;;5022553;28;20257;-56
2023/11/16 12:41:52;;;;;;;6.43;2.30;;;12.70;99.90;;;;;;5020824;28;20305;-57
2023/11/16 12:44:18;;;;;;;4.00;2.00;;;12.80;99.90;;;;;;5019062;28;20226;-57
2023/11/16 12:46:46;;;;;;;4.97;1.90;;;12.80;99.90;;;;;;5016503;28;20207;-58
2023/11/16 12:49:14;;;;;;;4.40;1.80;;;12.70;99.90;;;;;;5022602;28;20342;-60
2023/11/16 12:51:42;;;;;;;4.40;1.90;;;12.60;99.90;;;;;;5022295;28;20610;-61